createdAt,value
2022-11-15T00:03:24.032Z,99497.50
2022-11-15T00:06:44.378Z,99487.28
2022-11-15T00:10:05.153Z,99484.91
2022-11-15T00:13:25.406Z,99475.41
2022-11-15T00:16:45.685Z,99475.72
2022-11-15T00:20:06.379Z,99478.69
2022-11-15T00:23:26.398Z,99477.41
2022-11-15T00:26:46.247Z,99465.69
2022-11-15T00:30:06.733Z,99463.22
2022-11-15T00:33:27.799Z,99465.81
2022-11-15T00:36:47.703Z,99456.59
2022-11-15T00:40:09.084Z,99456.56
2022-11-15T00:43:29.702Z,99458.25
2022-11-15T00:46:49.937Z,99450.53
2022-11-15T00:50:12.960Z,99450.88
2022-11-15T00:53:35.720Z,99449.44
2022-11-15T00:56:55.532Z,99449.13
2022-11-15T01:00:15.845Z,99440.09
2022-11-15T01:03:36.739Z,99442.72
2022-11-15T01:06:56.693Z,99442.06
2022-11-15T01:10:16.702Z,99439.84
2022-11-15T01:13:37.593Z,99436.22
2022-11-15T01:16:57.662Z,99438.88
2022-11-15T01:20:17.632Z,99434.81
2022-11-15T01:23:38.447Z,99433.66
2022-11-15T01:26:58.656Z,99428.09
2022-11-15T01:30:18.549Z,99428.09
2022-11-15T01:33:38.549Z,99417.78
2022-11-15T01:36:58.374Z,99416.81
2022-11-15T01:40:18.411Z,99416.19
2022-11-15T01:43:40.439Z,99413.56
2022-11-15T01:47:04.218Z,99402.88
2022-11-15T01:50:29.144Z,99403.53
2022-11-15T01:53:53.424Z,99397.81
2022-11-15T01:57:14.200Z,99393.72
2022-11-15T02:00:34.629Z,99397.31
2022-11-15T02:04:08.719Z,99396.50
2022-11-15T02:07:29.463Z,99393.59
2022-11-15T02:10:49.299Z,99402.91
2022-11-15T02:14:10.400Z,99392.28
2022-11-15T02:17:59.138Z,99399.78
2022-11-15T02:21:26.791Z,99389.94
2022-11-15T02:24:57.911Z,99379.06
2022-11-15T02:28:45.342Z,99376.31
2022-11-15T02:32:29.310Z,99380.38
2022-11-15T02:36:00.625Z,99376.47
2022-11-15T02:39:32.630Z,99371.53
2022-11-15T02:43:19.610Z,99365.31
2022-11-15T02:47:10.697Z,99355.47
2022-11-15T02:50:33.569Z,99349.25
2022-11-15T02:53:53.723Z,99352.84
2022-11-15T02:57:18.401Z,99354.50
2022-11-15T03:00:59.648Z,99342.47
2022-11-15T03:04:36.409Z,99338.72
2022-11-15T03:08:23.192Z,99345.31
2022-11-15T03:11:50.594Z,99330.44
2022-11-15T03:15:32.447Z,99342.03
2022-11-15T03:19:01.600Z,99344.91
2022-11-15T03:22:26.624Z,99338.69
2022-11-15T03:25:51.114Z,99339.88
2022-11-15T03:29:18.374Z,99335.81
2022-11-15T03:32:44.876Z,99336.47
2022-11-15T03:36:05.415Z,99345.03
2022-11-15T03:39:27.054Z,99342.91
2022-11-15T03:43:00.841Z,99342.28
2022-11-15T03:46:28.376Z,99343.50
2022-11-15T03:49:56.551Z,99336.06
2022-11-15T03:53:16.385Z,99347.88
2022-11-15T03:56:36.289Z,99344.63
2022-11-15T03:59:56.263Z,99337.09
2022-11-15T04:03:16.134Z,99337.31
2022-11-15T04:06:36.130Z,99330.13
2022-11-15T04:10:05.118Z,99332.69
2022-11-15T04:13:25.016Z,99326.81
2022-11-15T04:16:44.857Z,99323.00
2022-11-15T04:20:25.421Z,99322.97
2022-11-15T04:24:04.234Z,99326.13
2022-11-15T04:27:24.282Z,99328.31
2022-11-15T04:30:44.156Z,99313.47
2022-11-15T04:34:04.153Z,99314.34
2022-11-15T04:37:24.139Z,99315.19
2022-11-15T04:40:44.537Z,99304.72
2022-11-15T04:44:04.537Z,99315.06
2022-11-15T04:47:24.563Z,99302.91
2022-11-15T04:50:44.381Z,99306.16
2022-11-15T04:54:04.323Z,99314.84
2022-11-15T04:57:24.494Z,99311.41
2022-11-15T05:00:44.567Z,99307.38
2022-11-15T05:04:19.885Z,99311.84
2022-11-15T05:07:39.783Z,99305.06
2022-11-15T05:10:59.672Z,99310.56
2022-11-15T05:14:19.677Z,99306.97
2022-11-15T05:17:39.620Z,99303.75
2022-11-15T05:21:14.079Z,99300.50
2022-11-15T05:24:34.220Z,99298.56
2022-11-15T05:27:54.167Z,99298.63
2022-11-15T05:31:16.676Z,99287.81
2022-11-15T05:34:36.493Z,99292.44
2022-11-15T05:37:56.266Z,99296.22
2022-11-15T05:41:18.730Z,99287.69
2022-11-15T05:44:42.151Z,99290.38
2022-11-15T05:48:07.625Z,99284.50
2022-11-15T05:51:29.767Z,99284.69
2022-11-15T05:54:50.731Z,99279.88
2022-11-15T05:58:10.591Z,99287.75
2022-11-15T06:01:30.751Z,99285.50
2022-11-15T06:04:50.555Z,99285.66
2022-11-15T06:08:10.426Z,99278.38
2022-11-15T06:11:30.397Z,99272.00
2022-11-15T06:14:50.382Z,99277.25
2022-11-15T06:18:10.454Z,99273.75
2022-11-15T06:21:30.468Z,99264.22
2022-11-15T06:24:50.240Z,99260.25
2022-11-15T06:28:10.636Z,99260.94
2022-11-15T06:31:30.996Z,99262.88
2022-11-15T06:34:51.136Z,99266.56
2022-11-15T06:38:12.052Z,99272.13
2022-11-15T06:41:35.305Z,99267.41
2022-11-15T06:44:55.735Z,99269.22
2022-11-15T06:48:15.786Z,99274.47
2022-11-15T06:51:35.477Z,99284.44
2022-11-15T06:54:55.381Z,99288.56
2022-11-15T06:58:15.364Z,99289.56
2022-11-15T07:01:35.588Z,99289.56
2022-11-15T07:04:55.447Z,99285.00
2022-11-15T07:08:15.346Z,99289.56
2022-11-15T07:11:35.413Z,99288.75
2022-11-15T07:14:55.345Z,99289.91
2022-11-15T07:18:15.308Z,99288.94
2022-11-15T07:21:35.421Z,99281.88
2022-11-15T07:24:55.354Z,99286.97
2022-11-15T07:28:15.752Z,99278.44
2022-11-15T07:31:36.408Z,99277.78
2022-11-15T07:34:56.628Z,99271.22
2022-11-15T07:38:21.609Z,99281.03
2022-11-15T07:41:41.841Z,99275.19
2022-11-15T07:45:01.626Z,99278.47
2022-11-15T07:48:21.815Z,99271.25
2022-11-15T07:51:41.980Z,99273.06
2022-11-15T07:55:01.963Z,99263.22
2022-11-15T07:58:21.883Z,99271.13
2022-11-15T08:01:41.923Z,99259.81
2022-11-15T08:05:02.068Z,99265.06
2022-11-15T08:08:23.155Z,99264.81
2022-11-15T08:11:42.983Z,99265.97
2022-11-15T08:15:03.885Z,99267.94
2022-11-15T08:18:23.820Z,99267.94
2022-11-15T08:21:43.525Z,99266.13
2022-11-15T08:25:03.582Z,99259.47
2022-11-15T08:28:23.786Z,99256.03
2022-11-15T08:31:43.661Z,99253.56
2022-11-15T08:35:04.123Z,99251.88
2022-11-15T08:38:25.239Z,99261.94
2022-11-15T08:41:45.608Z,99256.84
2022-11-15T08:45:05.994Z,99251.25
2022-11-15T08:48:26.268Z,99256.16
2022-11-15T08:51:46.481Z,99253.84
2022-11-15T08:55:06.946Z,99254.16
2022-11-15T08:58:26.635Z,99249.69
2022-11-15T09:01:46.485Z,99253.44
2022-11-15T09:05:07.179Z,99252.59
2022-11-15T09:08:48.192Z,99247.72
2022-11-15T09:12:08.897Z,99251.13
2022-11-15T09:15:29.084Z,99260.38
2022-11-15T09:18:48.884Z,99247.03
2022-11-15T09:22:09.507Z,99257.81
2022-11-15T09:25:30.053Z,99256.66
2022-11-15T09:28:50.338Z,99261.41
2022-11-15T09:32:10.546Z,99260.75
2022-11-15T09:35:30.385Z,99270.03
2022-11-15T09:38:50.475Z,99274.13
2022-11-15T09:42:27.253Z,99276.63
2022-11-15T09:46:04.339Z,99275.50
2022-11-15T09:49:24.628Z,99276.22
2022-11-15T09:52:45.138Z,99279.47
2022-11-15T09:56:03.164Z,99280.31
2022-11-15T09:59:07.593Z,99267.69
2022-11-15T10:02:08.940Z,99266.03
2022-11-15T10:05:15.260Z,99259.91
2022-11-15T10:08:25.692Z,99256.88
2022-11-15T10:11:39.506Z,99247.75
2022-11-15T10:14:42.468Z,99242.88
2022-11-15T10:18:17.828Z,99232.59
2022-11-15T10:21:24.869Z,99223.53
2022-11-15T10:24:31.756Z,99220.31
2022-11-15T10:27:33.196Z,99222.84
2022-11-15T10:30:38.144Z,99211.59
2022-11-15T10:33:40.531Z,99197.59
2022-11-15T10:36:56.602Z,99192.03
2022-11-15T10:40:20.496Z,99185.63
2022-11-15T10:43:22.651Z,99182.72
2022-11-15T10:46:45.775Z,99181.34
2022-11-15T10:50:13.024Z,99167.50
2022-11-15T10:53:27.612Z,99157.69
2022-11-15T10:56:29.100Z,99156.97
2022-11-15T10:59:38.820Z,99139.50
2022-11-15T11:02:57.977Z,99134.59
2022-11-15T11:06:11.974Z,99133.94
2022-11-15T11:09:22.860Z,99128.06
2022-11-15T11:12:33.050Z,99119.00
2022-11-15T11:15:34.948Z,99122.25
2022-11-15T11:19:07.323Z,99122.25
2022-11-15T11:22:24.327Z,99120.81
2022-11-15T11:25:52.433Z,99117.81
2022-11-15T11:29:14.179Z,99113.75
2022-11-15T11:33:09.804Z,99109.69
2022-11-15T11:36:33.207Z,99099.41
2022-11-15T11:39:55.678Z,99095.81
2022-11-15T11:43:06.251Z,99093.53
2022-11-15T11:46:32.381Z,99091.97
2022-11-15T11:49:46.988Z,99094.16
2022-11-15T11:53:19.048Z,99083.84
2022-11-15T11:56:28.620Z,99081.78
2022-11-15T11:59:44.590Z,99074.31
2022-11-15T12:03:10.823Z,99066.38
2022-11-15T12:07:03.009Z,99057.28
2022-11-15T12:10:20.990Z,99042.31
2022-11-15T12:13:27.166Z,99036.41
2022-11-15T12:16:31.332Z,99038.28
2022-11-15T12:19:33.036Z,99023.25
2022-11-15T12:22:48.225Z,99007.91
2022-11-15T12:26:05.410Z,99001.84
2022-11-15T12:29:32.627Z,98994.28
2022-11-15T12:32:38.514Z,98979.56
2022-11-15T12:35:43.496Z,98971.66
2022-11-15T12:38:55.644Z,98965.69
2022-11-15T12:41:57.039Z,98967.06
2022-11-15T12:45:00.415Z,98956.53
2022-11-15T12:48:16.695Z,98945.81
2022-11-15T12:51:20.436Z,98944.72
2022-11-15T12:54:24.872Z,98943.56
2022-11-15T12:57:26.219Z,98938.50
2022-11-15T13:00:30.594Z,98927.50
2022-11-15T13:03:32.833Z,98930.00
2022-11-15T13:06:37.505Z,98925.94
2022-11-15T13:09:38.984Z,98925.06
2022-11-15T13:12:46.468Z,98923.84
2022-11-15T13:16:00.240Z,98928.13
2022-11-15T13:19:04.058Z,98925.53
2022-11-15T13:22:28.280Z,98907.13
2022-11-15T13:25:48.808Z,98908.78
2022-11-15T13:28:55.482Z,98907.22
2022-11-15T13:31:57.088Z,98911.22
2022-11-15T13:35:01.665Z,98908.38
2022-11-15T13:38:05.952Z,98900.59
2022-11-15T13:41:23.056Z,98893.44
2022-11-15T13:44:30.457Z,98897.50
2022-11-15T13:47:32.860Z,98886.47
2022-11-15T13:50:36.552Z,98878.91
2022-11-15T13:53:41.691Z,98882.69
2022-11-15T13:57:15.266Z,98871.44
2022-11-15T14:00:36.539Z,98870.06
2022-11-15T14:03:50.258Z,98865.88
2022-11-15T14:06:58.153Z,98857.16
2022-11-15T14:10:18.535Z,98848.84
2022-11-15T14:13:31.220Z,98845.59
2022-11-15T14:16:39.922Z,98841.59
2022-11-15T14:19:41.382Z,98842.72
2022-11-15T14:22:52.964Z,98837.72
2022-11-15T14:26:00.160Z,98831.03
2022-11-15T14:29:23.493Z,98819.66
2022-11-15T14:32:28.637Z,98808.34
2022-11-15T14:35:30.091Z,98806.31
2022-11-15T14:38:31.910Z,98789.72
2022-11-15T14:41:38.794Z,98796.38
2022-11-15T14:44:43.501Z,98792.50
2022-11-15T14:47:48.207Z,98796.28
2022-11-15T14:50:49.695Z,98786.16
2022-11-15T14:53:51.997Z,98775.84
2022-11-15T14:56:53.317Z,98776.72
2022-11-15T14:59:54.946Z,98777.31
2022-11-15T15:02:56.994Z,98765.75
2022-11-15T15:05:58.419Z,98766.47
2022-11-15T15:08:59.885Z,98763.72
2022-11-15T15:12:06.041Z,98766.16
2022-11-15T15:15:14.789Z,98768.38
2022-11-15T15:18:16.950Z,98754.81
2022-11-15T15:21:22.766Z,98759.66
2022-11-15T15:24:24.165Z,98743.03
2022-11-15T15:27:25.559Z,98744.50
2022-11-15T15:30:29.060Z,98734.53
2022-11-15T15:33:30.440Z,98737.94
2022-11-15T15:36:31.924Z,98732.06
2022-11-15T15:39:33.742Z,98738.84
2022-11-15T15:42:35.391Z,98728.66
2022-11-15T15:45:40.091Z,98731.88
2022-11-15T15:48:41.737Z,98727.44
2022-11-15T15:51:43.159Z,98719.28
2022-11-15T15:54:44.661Z,98723.13
2022-11-15T15:57:46.955Z,98723.31
2022-11-15T16:00:48.299Z,98713.81
2022-11-15T16:03:49.733Z,98714.00
2022-11-15T16:06:53.803Z,98715.84
2022-11-15T16:10:01.299Z,98711.16
2022-11-15T16:13:03.169Z,98717.63
2022-11-15T16:16:09.823Z,98715.34
2022-11-15T16:19:12.579Z,98715.53
2022-11-15T16:22:14.001Z,98707.66
2022-11-15T16:25:15.584Z,98703.84
2022-11-15T16:28:27.977Z,98710.09
2022-11-15T16:31:30.189Z,98709.13
2022-11-15T16:34:34.882Z,98717.53
2022-11-15T16:37:40.720Z,98724.28
2022-11-15T16:40:42.261Z,98725.13
2022-11-15T16:43:43.626Z,98727.06
2022-11-15T16:46:51.619Z,98721.19
2022-11-15T16:49:53.020Z,98705.22
2022-11-15T16:52:56.351Z,98700.28
2022-11-15T16:55:57.870Z,98685.31
2022-11-15T16:59:01.010Z,98672.84
2022-11-15T17:02:02.513Z,98677.56
2022-11-15T17:05:09.596Z,98678.22
2022-11-15T17:08:12.578Z,98677.66
2022-11-15T17:11:16.656Z,98675.81
2022-11-15T17:14:18.852Z,98691.38
2022-11-15T17:17:21.566Z,98667.50
2022-11-15T17:20:25.032Z,98680.78
2022-11-15T17:23:26.422Z,98677.75
2022-11-15T17:26:32.170Z,98676.78
2022-11-15T17:29:35.575Z,98668.97
2022-11-15T17:32:37.446Z,98672.22
2022-11-15T17:35:38.985Z,98674.09
2022-11-15T17:38:43.487Z,98678.03
2022-11-15T17:41:45.089Z,98679.72
2022-11-15T17:44:46.581Z,98676.91
2022-11-15T17:47:48.119Z,98676.78
2022-11-15T17:51:03.670Z,98675.22
2022-11-15T17:54:05.302Z,98676.34
2022-11-15T17:57:06.746Z,98672.03
2022-11-15T18:00:09.289Z,98668.34
2022-11-15T18:03:10.684Z,98667.66
2022-11-15T18:06:12.503Z,98663.63
2022-11-15T18:09:13.974Z,98661.94
2022-11-15T18:12:15.462Z,98661.91
2022-11-15T18:15:18.686Z,98653.03
2022-11-15T18:18:20.179Z,98645.28
2022-11-15T18:21:23.989Z,98647.59
2022-11-15T18:24:30.707Z,98645.63
2022-11-15T18:27:32.217Z,98650.78
2022-11-15T18:30:33.618Z,98650.88
2022-11-15T18:33:35.531Z,98644.84
2022-11-15T18:36:38.862Z,98641.19
2022-11-15T18:39:40.412Z,98642.84
2022-11-15T18:42:41.798Z,98644.88
2022-11-15T18:45:43.189Z,98649.63
2022-11-15T18:48:45.637Z,98635.81
2022-11-15T18:51:47.645Z,98632.66
2022-11-15T18:54:49.107Z,98625.78
2022-11-15T18:57:50.492Z,98634.69
2022-11-15T19:00:51.958Z,98624.31
2022-11-15T19:03:55.905Z,98620.50
2022-11-15T19:06:57.446Z,98615.56
2022-11-15T19:09:58.882Z,98611.63
2022-11-15T19:13:00.248Z,98593.78
2022-11-15T19:16:03.504Z,98587.56
2022-11-15T19:19:10.624Z,98587.97
2022-11-15T19:22:12.130Z,98583.00
2022-11-15T19:25:13.532Z,98583.25
2022-11-15T19:28:14.928Z,98559.88
2022-11-15T19:31:17.714Z,98563.94
2022-11-15T19:34:19.167Z,98575.00
2022-11-15T19:37:20.723Z,98570.78
2022-11-15T19:40:22.103Z,98571.50
2022-11-15T19:43:23.488Z,98568.00
2022-11-15T19:46:26.753Z,98559.09
2022-11-15T19:49:28.215Z,98550.25
2022-11-15T19:52:29.674Z,98549.44
2022-11-15T19:55:31.238Z,98562.25
2022-11-15T19:58:34.552Z,98561.03
2022-11-15T20:01:38.421Z,98551.31
2022-11-15T20:04:40.088Z,98556.81
2022-11-15T20:07:41.597Z,98565.81
2022-11-15T20:10:43.967Z,98573.81
2022-11-15T20:13:45.381Z,98574.56
2022-11-15T20:16:51.448Z,98570.97
2022-11-15T20:19:55.537Z,98570.44
2022-11-15T20:23:02.274Z,98568.44
2022-11-15T20:26:05.315Z,98576.06
2022-11-15T20:29:08.391Z,98571.78
2022-11-15T20:32:09.833Z,98570.41
2022-11-15T20:35:11.380Z,98580.94
2022-11-15T20:38:12.790Z,98586.56
2022-11-15T20:41:14.898Z,98581.06
2022-11-15T20:44:16.532Z,98578.97
2022-11-15T20:47:17.995Z,98576.56
2022-11-15T20:50:41.101Z,98569.78
2022-11-15T20:53:41.978Z,98572.72
2022-11-15T20:56:43.373Z,98563.22
2022-11-15T20:59:44.871Z,98560.97
2022-11-15T21:02:46.582Z,98556.53
2022-11-15T21:05:48.003Z,98555.97
2022-11-15T21:09:09.557Z,98552.09
2022-11-15T21:12:13.363Z,98545.84
2022-11-15T21:15:14.764Z,98542.78
2022-11-15T21:18:16.310Z,98540.53
2022-11-15T21:21:17.854Z,98546.03
2022-11-15T21:24:20.193Z,98549.84
2022-11-15T21:27:21.628Z,98554.72
2022-11-15T21:30:23.176Z,98540.50
2022-11-15T21:33:27.314Z,98547.34
2022-11-15T21:36:28.782Z,98548.38
2022-11-15T21:39:30.289Z,98552.72
2022-11-15T21:42:31.737Z,98543.06
2022-11-15T21:45:33.249Z,98540.34
2022-11-15T21:48:36.093Z,98537.72
2022-11-15T21:51:37.899Z,98537.38
2022-11-15T21:54:40.953Z,98537.06
2022-11-15T21:57:42.444Z,98536.81
2022-11-15T22:01:03.429Z,98535.59
2022-11-15T22:04:07.907Z,98524.25
2022-11-15T22:07:09.525Z,98524.50
2022-11-15T22:10:11.174Z,98521.81
2022-11-15T22:13:13.359Z,98510.53
2022-11-15T22:16:14.866Z,98512.00
2022-11-15T22:19:16.364Z,98512.22
2022-11-15T22:22:17.797Z,98517.00
2022-11-15T22:25:19.245Z,98518.25
2022-11-15T22:28:21.570Z,98507.91
2022-11-15T22:31:22.956Z,98509.22
2022-11-15T22:34:24.376Z,98516.06
2022-11-15T22:37:25.809Z,98504.38
2022-11-15T22:40:27.222Z,98498.28
2022-11-15T22:43:28.995Z,98503.91
2022-11-15T22:46:33.850Z,98509.84
2022-11-15T22:49:35.422Z,98502.97
2022-11-15T22:52:36.862Z,98498.28
2022-11-15T22:55:41.413Z,98493.91
2022-11-15T22:58:42.888Z,98479.19
2022-11-15T23:01:44.499Z,98475.03
2022-11-15T23:04:46.124Z,98467.84
2022-11-15T23:07:47.605Z,98468.69
2022-11-15T23:11:07.937Z,98459.97
2022-11-15T23:14:10.453Z,98447.78
2022-11-15T23:17:11.932Z,98445.78
2022-11-15T23:20:41.392Z,98454.31
2022-11-15T23:23:35.511Z,98448.19
2022-11-15T23:26:37.108Z,98451.44
2022-11-15T23:29:57.366Z,98457.47
2022-11-15T23:33:17.528Z,98458.56
2022-11-15T23:36:18.987Z,98458.88
2022-11-15T23:39:20.690Z,98459.00
2022-11-15T23:42:22.083Z,98462.56
2022-11-15T23:45:23.557Z,98465.44
2022-11-15T23:48:24.954Z,98458.78
2022-11-15T23:51:26.392Z,98466.53
2022-11-15T23:54:27.873Z,98466.47
2022-11-15T23:57:29.318Z,98473.25
